Time;durP1;ratioP1;P1;durP2;ratioP2;P2;SDS_P1;SDS_P2;PMS_P1;PMS_P2;Temp;Humidity;BMP_temperature;BMP_pressure;BME280_temperature;BME280_humidity;BME280_pressure;Samples;Min_cycle;Max_cycle;Signal;HPM_P1;HPM_P2
2023/03/23 00:01:58;;;;;;;7.00;0.90;;;;;;;7.08;71.28;99368.84;5034452;28;20049;-73
2023/03/23 00:04:26;;;;;;;6.45;0.30;;;;;;;7.09;71.06;99375.78;5037683;28;20048;-73
2023/03/23 00:06:53;;;;;;;4.05;0.30;;;;;;;7.05;71.04;99364.59;5033363;28;20045;-72
2023/03/23 00:09:24;;;;;;;1.65;0.30;;;;;;;7.05;71.19;99374.13;5038226;28;20048;-73
2023/03/23 00:11:56;;;;;;;2.92;0.60;;;;;;;7.03;71.06;99376.78;5031573;28;20127;-72
2023/03/23 00:14:24;;;;;;;3.75;0.30;;;;;;;7.01;71.23;99385.50;5038984;28;20535;-75
2023/03/23 00:16:51;;;;;;;7.28;0.45;;;;;;;6.96;71.06;99383.84;5043035;28;20503;-72
2023/03/23 00:19:20;;;;;;;4.35;0.70;;;;;;;6.98;71.19;99383.84;5034342;28;20052;-73
2023/03/23 00:21:47;;;;;;;3.25;0.20;;;;;;;6.97;70.95;99392.50;5036792;28;20053;-72
2023/03/23 00:24:17;;;;;;;7.25;0.65;;;;;;;6.94;71.30;99385.66;5038689;28;20128;-72
2023/03/23 00:26:47;;;;;;;4.88;0.40;;;;;;;6.92;70.90;99384.84;5033642;28;20071;-73
2023/03/23 00:29:18;;;;;;;1.30;0.28;;;;;;;6.90;71.04;99393.56;5032940;28;20046;-73
2023/03/23 00:31:47;;;;;;;4.43;0.40;;;;;;;6.88;71.22;99390.97;5038385;28;20055;-73
2023/03/23 00:34:18;;;;;;;8.15;0.40;;;;;;;6.85;70.78;99383.28;5041883;28;20051;-73
2023/03/23 00:36:46;;;;;;;7.10;0.40;;;;;;;6.80;70.79;99387.72;5039233;28;20069;-73
2023/03/23 00:39:15;;;;;;;1.48;0.30;;;;;;;6.79;70.97;99388.63;5038151;28;20044;-72
2023/03/23 00:41:42;;;;;;;7.75;1.10;;;;;;;6.78;70.88;99391.28;5039074;28;20072;-73
2023/03/23 00:44:16;;;;;;;8.07;0.40;;;;;;;6.76;70.63;99389.56;5038080;28;20045;-72
2023/03/23 00:46:44;;;;;;;6.43;0.80;;;;;;;6.73;70.59;99381.84;5041279;28;20731;-73
2023/03/23 00:49:13;;;;;;;2.50;0.60;;;;;;;6.73;70.49;99393.97;5037000;28;20169;-72
2023/03/23 00:51:40;;;;;;;10.65;0.50;;;;;;;6.71;70.67;99393.16;5045339;28;20566;-73
2023/03/23 00:54:07;;;;;;;3.72;0.30;;;;;;;6.69;70.43;99387.19;5036598;28;20052;-72
2023/03/23 00:56:35;;;;;;;6.28;0.85;;;;;;;6.67;70.46;99397.56;5038479;28;20060;-72
2023/03/23 00:59:02;;;;;;;9.77;1.70;;;;;;;6.66;71.02;99401.06;5038640;28;20056;-73
2023/03/23 01:01:30;;;;;;;5.18;0.68;;;;;;;6.66;70.47;99402.78;5037129;28;20061;-73
2023/03/23 01:04:00;;;;;;;10.98;0.57;;;;;;;6.66;70.39;99402.78;5042478;28;20413;-72
2023/03/23 01:06:28;;;;;;;5.45;0.73;;;;;;;6.65;70.35;99396.75;5041145;28;20080;-73
2023/03/23 01:08:56;;;;;;;7.18;0.60;;;;;;;6.65;70.34;99390.72;5040085;28;20053;-73
2023/03/23 01:11:23;;;;;;;5.82;0.32;;;;;;;6.64;70.60;99389.03;5040861;28;20049;-72
2023/03/23 01:13:50;;;;;;;10.05;2.83;;;;;;;6.63;70.39;99382.09;5033336;28;20060;-73
2023/03/23 01:16:17;;;;;;;9.30;1.20;;;;;;;6.62;70.45;99388.19;5042301;28;20061;-72
2023/03/23 01:18:45;;;;;;;8.68;0.63;;;;;;;6.59;70.43;99398.66;5034019;28;20059;-72
2023/03/23 01:21:15;;;;;;;3.75;0.50;;;;;;;6.58;70.40;99394.38;5040064;28;20049;-72
2023/03/23 01:23:42;;;;;;;4.93;0.47;;;;;;;6.56;70.51;99402.19;5036134;28;20042;-72
2023/03/23 01:26:10;;;;;;;9.30;0.95;;;;;;;6.55;70.19;99389.25;5036924;28;20044;-72
2023/03/23 01:28:38;;;;;;;9.93;0.65;;;;;;;6.53;70.38;99403.09;5033799;28;20520;-72
2023/03/23 01:31:07;;;;;;;12.05;1.02;;;;;;;6.50;70.10;99398.00;5033679;28;20048;-73
2023/03/23 01:33:35;;;;;;;9.05;0.50;;;;;;;6.45;70.17;99392.03;5040646;28;20052;-72
2023/03/23 01:36:06;;;;;;;12.05;0.75;;;;;;;6.49;69.99;99401.47;5040286;28;20048;-73
2023/03/23 01:38:34;;;;;;;8.05;0.63;;;;;;;6.49;70.01;99400.63;5036775;28;20048;-73
2023/03/23 01:41:02;;;;;;;6.72;0.73;;;;;;;6.44;70.10;99413.69;5030582;28;20068;-72
2023/03/23 01:43:29;;;;;;;8.20;0.52;;;;;;;6.44;69.99;99412.84;5034387;28;20053;-72
2023/03/23 01:45:56;;;;;;;13.07;1.10;;;;;;;6.41;69.57;99418.97;5032091;28;20616;-72
2023/03/23 01:48:26;;;;;;;10.70;0.75;;;;;;;6.40;69.96;99417.22;5032168;28;20045;-73
2023/03/23 01:50:57;;;;;;;7.38;0.80;;;;;;;6.39;69.88;99417.28;5041764;28;20045;-73
2023/03/23 01:53:31;;;;;;;4.78;0.40;;;;;;;6.36;69.86;99407.84;5041526;28;20409;-73
2023/03/23 01:56:00;;;;;;;13.10;2.58;;;;;;;6.34;69.91;99403.56;5035005;28;20053;-72
2023/03/23 01:58:30;;;;;;;8.43;0.60;;;;;;;6.27;69.79;99401.13;5034133;28;20051;-72
2023/03/23 02:01:00;;;;;;;17.70;2.63;;;;;;;6.30;69.60;99400.19;5032213;28;20042;-72
2023/03/23 02:03:28;;;;;;;9.15;0.75;;;;;;;6.28;69.88;99401.97;5039887;28;20056;-72
2023/03/23 02:05:58;;;;;;;7.78;0.65;;;;;;;6.27;69.73;99410.66;5032295;28;20056;-72
2023/03/23 02:08:28;;;;;;;12.90;0.60;;;;;;;6.25;69.63;99408.06;5034291;28;20045;-72
2023/03/23 02:10:55;;;;;;;12.63;0.65;;;;;;;6.24;69.76;99410.72;5037202;28;20056;-73
2023/03/23 02:13:23;;;;;;;8.27;1.02;;;;;;;6.21;69.63;99408.19;5035027;28;20421;-72
2023/03/23 02:15:59;;;;;;;13.68;0.80;;;;;;;6.20;69.52;99404.72;5041101;28;20057;-73
2023/03/23 02:18:46;;;;;;;12.25;0.73;;;;;;;6.17;69.79;99404.78;5031488;28;20048;-72
2023/03/23 02:22:04;;;;;;;13.57;0.90;;;;;;;6.15;69.53;99400.53;5040066;28;20045;-73
2023/03/23 02:24:53;;;;;;;11.13;0.88;;;;;;;6.11;69.65;99404.94;5035382;28;20408;-73
2023/03/23 02:27:32;;;;;;;12.68;0.80;;;;;;;6.07;69.72;99404.16;5035827;28;20052;-72
2023/03/23 02:30:16;;;;;;;7.10;0.93;;;;;;;6.05;69.88;99394.72;5040329;28;20050;-72
2023/03/23 02:33:00;;;;;;;10.35;0.60;;;;;;;6.02;69.79;99400.81;5029909;28;20041;-74
2023/03/23 02:35:35;;;;;;;8.45;1.27;;;;;;;5.98;69.67;99394.00;5036404;28;20048;-73
2023/03/23 02:38:07;;;;;;;17.02;1.02;;;;;;;5.97;69.68;99397.47;5034939;28;20037;-72
2023/03/23 02:40:39;;;;;;;7.13;1.05;;;;;;;5.96;69.64;99400.94;5035535;28;20052;-72
2023/03/23 02:43:10;;;;;;;15.80;1.15;;;;;;;5.95;69.55;99393.19;5034068;28;20073;-72
2023/03/23 02:45:38;;;;;;;9.88;0.60;;;;;;;5.92;69.59;99398.41;5042272;28;20131;-72
2023/03/23 02:48:09;;;;;;;14.13;1.85;;;;;;;5.91;69.43;99400.16;5040973;28;20049;-72
2023/03/23 02:50:39;;;;;;;11.27;1.02;;;;;;;5.88;69.47;99405.41;5031776;28;20729;-72
2023/03/23 02:53:10;;;;;;;16.45;1.10;;;;;;;5.84;69.43;99402.03;5029083;28;20041;-72
2023/03/23 02:55:41;;;;;;;10.18;2.03;;;;;;;5.83;69.46;99402.06;5026107;28;20064;-72
2023/03/23 02:58:08;;;;;;;12.57;0.57;;;;;;;5.80;69.54;99405.56;5034071;28;20588;-72
2023/03/23 03:00:36;;;;;;;13.13;0.80;;;;;;;5.78;69.78;99411.69;5034800;28;20056;-73
2023/03/23 03:03:06;;;;;;;16.02;1.15;;;;;;;5.75;69.55;99399.66;5043268;28;20055;-72
2023/03/23 03:05:41;;;;;;;14.05;0.98;;;;;;;5.73;69.46;99398.81;5037182;28;20068;-72
2023/03/23 03:08:17;;;;;;;14.25;1.20;;;;;;;5.71;69.52;99402.31;5035096;28;20160;-73
2023/03/23 03:10:52;;;;;;;18.30;0.98;;;;;;;5.68;69.28;99395.47;5042015;28;20417;-72
2023/03/23 03:13:26;;;;;;;8.55;0.60;;;;;;;5.67;69.46;99398.09;5038919;28;20045;-74
2023/03/23 03:15:58;;;;;;;21.00;1.37;;;;;;;5.63;69.32;99405.06;5033147;28;20057;-72
2023/03/23 03:18:31;;;;;;;13.13;0.93;;;;;;;5.62;69.53;99406.81;5035784;28;20049;-72
2023/03/23 03:21:06;;;;;;;16.52;1.48;;;;;;;5.62;69.46;99411.97;5037805;28;20417;-74
2023/03/23 03:23:34;;;;;;;15.57;0.93;;;;;;;5.60;69.41;99400.78;5040247;28;20057;-67
2023/03/23 03:26:04;;;;;;;12.23;0.70;;;;;;;5.59;69.38;99406.00;5038590;28;20405;-67
2023/03/23 03:28:33;;;;;;;7.75;0.60;;;;;;;5.56;69.39;99409.53;5038692;28;20054;-67
2023/03/23 03:31:04;;;;;;;15.93;1.55;;;;;;;5.55;69.38;99413.00;5031737;28;20050;-67
2023/03/23 03:33:33;;;;;;;19.00;1.02;;;;;;;5.53;69.52;99414.75;5035901;28;20045;-67
2023/03/23 03:36:06;;;;;;;14.27;1.05;;;;;;;5.53;69.68;99422.53;5033978;28;20053;-67
2023/03/23 03:38:42;;;;;;;8.93;0.70;;;;;;;5.50;69.37;99412.25;5035478;28;20045;-67
2023/03/23 03:41:09;;;;;;;11.60;0.57;;;;;;;5.46;69.41;99418.34;5032859;28;20493;-67
2023/03/23 03:43:36;;;;;;;14.73;0.60;;;;;;;5.47;69.31;99419.22;5038868;28;20076;-67
2023/03/23 03:46:03;;;;;;;13.30;1.33;;;;;;;5.44;69.54;99404.59;5034231;28;20053;-67
2023/03/23 03:48:30;;;;;;;15.73;1.63;;;;;;;5.41;69.38;99410.69;5035159;28;20049;-67
2023/03/23 03:50:57;;;;;;;9.60;0.60;;;;;;;5.41;69.68;99426.22;5037311;28;20045;-67
2023/03/23 03:53:25;;;;;;;18.15;1.65;;;;;;;5.40;69.44;99416.72;5033704;28;20037;-67
2023/03/23 03:55:55;;;;;;;11.13;0.85;;;;;;;5.37;69.22;99421.97;5040949;28;20057;-67
2023/03/23 03:58:22;;;;;;;12.52;0.90;;;;;;;5.35;69.46;99415.97;5031096;28;20448;-67
2023/03/23 04:00:49;;;;;;;15.35;2.47;;;;;;;5.33;69.51;99399.59;5032938;28;20045;-67
2023/03/23 04:03:17;;;;;;;16.52;1.08;;;;;;;5.31;69.57;99396.19;5034584;28;20500;-67
2023/03/23 04:05:44;;;;;;;11.70;0.68;;;;;;;5.31;69.48;99406.53;5034327;28;20064;-67
2023/03/23 04:08:11;;;;;;;16.00;0.93;;;;;;;5.30;69.72;99409.19;5037715;28;20052;-67
2023/03/23 04:10:40;;;;;;;11.93;1.15;;;;;;;5.28;69.65;99410.94;5046670;28;20048;-67
2023/03/23 04:13:07;;;;;;;12.93;0.60;;;;;;;5.27;69.67;99414.41;5040027;28;20053;-67
2023/03/23 04:15:34;;;;;;;14.65;1.80;;;;;;;5.26;69.73;99405.78;5036391;28;20045;-67
2023/03/23 04:18:01;;;;;;;13.77;0.80;;;;;;;5.24;69.74;99411.88;5041456;28;20065;-67
2023/03/23 04:20:27;;;;;;;9.95;1.00;;;;;;;5.22;69.74;99403.28;5034898;28;20049;-67
2023/03/23 04:22:54;;;;;;;13.75;0.82;;;;;;;5.21;69.77;99415.38;5039452;28;20045;-67
2023/03/23 04:25:22;;;;;;;10.00;1.25;;;;;;;5.19;69.95;99412.81;5040169;28;20052;-67
2023/03/23 04:27:53;;;;;;;13.40;0.80;;;;;;;5.17;70.04;99405.94;5041215;28;20049;-67
2023/03/23 04:30:21;;;;;;;10.45;1.60;;;;;;;5.15;69.93;99413.75;5042675;28;20096;-67
2023/03/23 04:32:50;;;;;;;13.05;1.15;;;;;;;5.15;69.78;99420.66;5034825;28;20510;-67
2023/03/23 04:35:18;;;;;;;11.68;1.17;;;;;;;5.15;70.07;99426.72;5041493;28;20049;-67
2023/03/23 04:37:46;;;;;;;12.63;1.65;;;;;;;5.14;70.03;99426.72;5037335;28;20057;-67
2023/03/23 04:40:14;;;;;;;13.27;1.13;;;;;;;5.13;70.03;99428.47;5039232;28;20053;-67
2023/03/23 04:42:45;;;;;;;14.70;2.90;;;;;;;5.11;70.25;99430.22;5038698;28;20063;-67
2023/03/23 04:45:15;;;;;;;11.75;1.40;;;;;;;5.10;70.03;99428.50;5043622;28;20053;-67
2023/03/23 04:47:52;;;;;;;7.57;1.08;;;;;;;5.09;70.14;99431.13;5038609;28;20045;-67
2023/03/23 04:50:21;;;;;;;17.95;1.35;;;;;;;5.08;70.27;99435.44;5036818;28;20057;-67
2023/03/23 04:52:48;;;;;;;16.55;0.80;;;;;;;5.07;70.33;99430.31;5038419;28;20140;-67
2023/03/23 04:55:15;;;;;;;16.77;0.93;;;;;;;5.06;70.08;99428.59;5031326;28;20106;-67
2023/03/23 04:57:43;;;;;;;11.90;0.75;;;;;;;5.04;70.26;99423.44;5041629;28;20568;-67
2023/03/23 05:00:16;;;;;;;15.45;0.73;;;;;;;5.04;70.38;99436.41;5041395;28;20481;-67
2023/03/23 05:02:43;;;;;;;16.50;1.20;;;;;;;5.04;70.32;99444.16;5041606;28;20110;-67
2023/03/23 05:05:12;;;;;;;18.10;1.67;;;;;;;5.02;70.40;99438.16;5032835;28;20580;-67
2023/03/23 05:07:40;;;;;;;13.85;1.10;;;;;;;5.02;70.35;99435.56;5040641;28;20310;-67
2023/03/23 05:10:10;;;;;;;10.32;1.27;;;;;;;5.01;70.28;99436.44;5039470;28;20049;-67
2023/03/23 05:12:36;;;;;;;14.85;1.65;;;;;;;5.00;70.44;99437.31;5040305;28;20103;-67
2023/03/23 05:15:05;;;;;;;9.02;0.77;;;;;;;5.00;70.46;99439.91;5039010;28;20045;-67
2023/03/23 05:17:34;;;;;;;9.50;1.50;;;;;;;5.00;70.38;99439.91;5032816;28;20099;-67
2023/03/23 05:20:04;;;;;;;12.80;0.85;;;;;;;4.93;70.33;99427.97;5041656;28;20065;-67
2023/03/23 05:22:32;;;;;;;11.30;0.77;;;;;;;4.99;70.54;99443.38;5030543;28;20069;-67
2023/03/23 05:24:59;;;;;;;13.85;0.88;;;;;;;4.88;70.38;99422.00;5032155;28;20413;-67
2023/03/23 05:27:27;;;;;;;15.57;1.48;;;;;;;4.99;70.42;99447.69;5044039;28;20047;-67
2023/03/23 05:29:54;;;;;;;11.13;2.00;;;;;;;4.98;70.56;99444.28;5037496;28;20051;-67
2023/03/23 05:32:29;;;;;;;18.08;1.17;;;;;;;4.98;70.36;99444.28;5038805;28;20049;-67
2023/03/23 05:34:57;;;;;;;8.90;1.25;;;;;;;4.98;70.72;99449.44;5035406;28;20047;-67
2023/03/23 05:37:26;;;;;;;6.85;0.90;;;;;;;4.99;70.62;99450.28;5041170;28;20045;-67
2023/03/23 05:39:55;;;;;;;19.45;0.85;;;;;;;4.96;70.71;99451.19;5039383;28;20041;-67
2023/03/23 05:42:22;;;;;;;16.73;2.33;;;;;;;4.98;70.63;99452.03;5037447;28;20136;-67
2023/03/23 05:44:49;;;;;;;15.75;2.50;;;;;;;4.97;70.67;99453.75;5038919;28;20515;-67
2023/03/23 05:47:16;;;;;;;10.05;0.60;;;;;;;4.98;70.64;99457.22;5037317;28;20425;-67
2023/03/23 05:49:43;;;;;;;10.45;0.80;;;;;;;4.99;70.67;99463.22;5033786;28;20068;-67
2023/03/23 05:52:12;;;;;;;13.82;1.45;;;;;;;4.99;70.66;99465.81;5035815;28;21354;-67
2023/03/23 05:54:38;;;;;;;6.90;1.17;;;;;;;5.00;70.64;99475.28;5033307;28;20876;-67
2023/03/23 05:57:05;;;;;;;12.02;0.88;;;;;;;4.99;70.62;99476.16;5041222;28;20045;-67
2023/03/23 05:59:33;;;;;;;18.58;1.77;;;;;;;4.99;70.57;99471.84;5034131;28;20045;-67
2023/03/23 06:02:00;;;;;;;10.35;1.25;;;;;;;5.01;70.40;99464.91;5039519;28;20076;-67
2023/03/23 06:04:27;;;;;;;12.68;0.68;;;;;;;5.02;70.63;99465.75;5035377;28;20052;-67
2023/03/23 06:06:54;;;;;;;13.88;0.90;;;;;;;4.98;70.96;99464.97;5033458;28;20067;-67
2023/03/23 06:09:24;;;;;;;11.63;1.73;;;;;;;5.04;70.71;99466.56;5040790;28;20042;-67
2023/03/23 06:11:51;;;;;;;12.38;0.55;;;;;;;5.05;70.60;99476.91;5042919;28;20048;-67
2023/03/23 06:14:18;;;;;;;23.45;0.93;;;;;;;5.06;70.72;99470.84;5037250;28;20494;-67
2023/03/23 06:16:45;;;;;;;26.13;1.30;;;;;;;5.06;70.60;99473.44;5041613;28;20053;-67
2023/03/23 06:19:12;;;;;;;6.72;0.45;;;;;;;5.08;70.72;99474.28;5038271;28;20045;-67
2023/03/23 06:21:39;;;;;;;16.98;1.50;;;;;;;5.10;70.73;99464.75;5035952;28;20477;-67
2023/03/23 06:24:07;;;;;;;17.17;0.95;;;;;;;5.12;70.64;99472.47;5038717;28;20500;-67
2023/03/23 06:26:37;;;;;;;12.57;1.00;;;;;;;5.13;70.82;99477.63;5031702;28;20572;-68
2023/03/23 06:29:10;;;;;;;5.45;0.77;;;;;;;5.14;70.95;99475.91;5040175;28;20524;-67
2023/03/23 06:31:39;;;;;;;17.13;2.90;;;;;;;5.17;70.64;99481.03;5036804;28;20111;-68
2023/03/23 06:34:06;;;;;;;13.30;1.15;;;;;;;5.18;70.65;99483.59;5035504;28;20094;-68
2023/03/23 06:36:33;;;;;;;15.45;1.80;;;;;;;5.21;70.70;99481.81;5032210;28;20048;-68
2023/03/23 06:39:00;;;;;;;15.93;0.93;;;;;;;5.23;70.68;99480.91;5035285;28;20410;-68
2023/03/23 06:41:28;;;;;;;10.75;1.45;;;;;;;5.24;70.69;99472.28;5039567;28;20111;-68
2023/03/23 06:43:56;;;;;;;13.68;0.80;;;;;;;5.24;70.65;99476.63;5034834;28;20053;-68
2023/03/23 06:46:23;;;;;;;16.25;0.80;;;;;;;5.28;70.65;99489.47;5037245;28;20576;-69
2023/03/23 06:48:51;;;;;;;13.27;1.15;;;;;;;5.31;70.68;99488.56;5036645;28;20115;-69
2023/03/23 06:51:18;;;;;;;15.02;0.80;;;;;;;5.33;70.69;99502.34;5038117;28;20413;-69
2023/03/23 06:53:45;;;;;;;13.00;1.00;;;;;;;5.36;70.75;99494.50;5035476;28;20084;-69
2023/03/23 06:56:13;;;;;;;16.58;1.98;;;;;;;5.38;70.50;99508.28;5039842;28;20504;-68
2023/03/23 06:58:41;;;;;;;13.32;0.98;;;;;;;5.39;70.42;99497.03;5035213;28;20053;-69
2023/03/23 07:01:10;;;;;;;9.98;0.85;;;;;;;5.44;70.48;99499.56;5032429;28;20144;-69
2023/03/23 07:03:37;;;;;;;16.70;0.80;;;;;;;5.46;70.37;99496.03;5038951;28;20056;-69
2023/03/23 07:06:05;;;;;;;12.15;3.05;;;;;;;5.49;70.36;99477.84;5040612;28;20071;-69
2023/03/23 07:08:32;;;;;;;18.63;1.45;;;;;;;5.52;70.24;99472.63;5035397;28;20053;-69
2023/03/23 07:10:59;;;;;;;16.73;1.10;;;;;;;5.55;70.16;99462.22;5039065;28;20049;-69
2023/03/23 07:13:26;;;;;;;14.98;2.63;;;;;;;5.60;70.05;99472.47;5036158;28;20045;-69
2023/03/23 07:15:54;;;;;;;10.57;1.05;;;;;;;5.62;69.96;99474.16;5030420;28;20061;-69
2023/03/23 07:18:22;;;;;;;15.15;1.10;;;;;;;5.68;69.87;99475.78;5037450;28;20382;-68
2023/03/23 07:20:50;;;;;;;13.95;1.02;;;;;;;5.74;70.07;99492.94;5036593;28;20053;-68
2023/03/23 07:23:17;;;;;;;7.30;0.70;;;;;;;5.79;69.94;99486.78;5032089;28;20139;-68
2023/03/23 07:25:44;;;;;;;9.85;1.73;;;;;;;5.84;69.81;99494.47;5032333;28;20049;-68
2023/03/23 07:28:11;;;;;;;15.80;1.00;;;;;;;5.90;69.54;99493.50;5039421;28;20046;-68
2023/03/23 07:30:39;;;;;;;20.98;2.20;;;;;;;5.97;69.65;99495.09;5036946;28;20051;-68
2023/03/23 07:33:07;;;;;;;15.05;1.00;;;;;;;6.04;69.43;99500.16;5036611;28;20045;-68
2023/03/23 07:35:36;;;;;;;11.52;2.72;;;;;;;6.11;68.93;99500.00;5032723;28;20049;-68
2023/03/23 07:38:03;;;;;;;13.15;0.98;;;;;;;6.19;69.30;99503.31;5032864;28;20457;-68
2023/03/23 07:40:33;;;;;;;16.58;0.93;;;;;;;6.26;69.54;99507.47;5037979;28;20501;-68
2023/03/23 07:43:00;;;;;;;8.82;0.75;;;;;;;6.35;69.35;99502.09;5033822;28;20132;-68
2023/03/23 07:45:28;;;;;;;9.77;0.82;;;;;;;6.40;69.17;99502.84;5035799;28;20064;-68
2023/03/23 07:47:55;;;;;;;13.63;0.80;;;;;;;6.53;69.28;99509.47;5031146;28;20041;-68
2023/03/23 07:50:24;;;;;;;9.75;0.85;;;;;;;6.63;69.29;99511.84;5032432;28;20084;-67
2023/03/23 07:52:54;;;;;;;10.25;0.80;;;;;;;6.73;68.99;99509.00;5032523;28;20099;-68
2023/03/23 07:55:21;;;;;;;7.82;1.80;;;;;;;6.83;68.90;99517.47;5033621;28;20057;-68
2023/03/23 07:57:49;;;;;;;12.10;1.00;;;;;;;6.92;68.63;99519.84;5031852;28;20678;-68
2023/03/23 08:00:18;;;;;;;8.65;0.82;;;;;;;7.04;68.52;99510.88;5033479;28;20052;-68
2023/03/23 08:02:45;;;;;;;8.63;1.02;;;;;;;7.16;68.45;99522.72;5034562;28;20053;-68
2023/03/23 08:05:13;;;;;;;12.73;1.35;;;;;;;7.26;67.69;99511.22;5038861;28;20049;-68
2023/03/23 08:07:41;;;;;;;13.23;0.60;;;;;;;7.37;68.08;99517.00;5035294;28;20556;-68
2023/03/23 08:10:11;;;;;;;17.15;0.95;;;;;;;7.42;67.53;99509.91;5037272;28;20398;-68
2023/03/23 08:12:38;;;;;;;8.77;1.13;;;;;;;7.60;67.68;99515.56;5037210;28;20049;-69
2023/03/23 08:15:07;;;;;;;13.65;1.58;;;;;;;7.66;67.65;99507.59;5037830;28;20049;-69
2023/03/23 08:17:35;;;;;;;14.35;0.70;;;;;;;7.80;67.60;99515.88;5035937;28;20049;-68
2023/03/23 08:20:08;;;;;;;10.68;1.00;;;;;;;7.81;66.75;99499.34;5038782;28;20049;-68
2023/03/23 08:22:35;;;;;;;12.93;0.60;;;;;;;8.00;66.66;99510.13;5035426;28;20064;-69
2023/03/23 08:25:03;;;;;;;6.53;1.15;;;;;;;8.11;66.52;99513.25;5033468;28;20053;-68
2023/03/23 08:27:31;;;;;;;13.07;1.63;;;;;;;8.20;66.36;99504.34;5024788;28;20978;-68
2023/03/23 08:29:59;;;;;;;13.07;1.00;;;;;;;8.30;65.66;99513.56;5029862;28;20098;-68
2023/03/23 08:32:25;;;;;;;16.00;2.35;;;;;;;8.36;65.90;99494.31;5035536;28;20065;-68
2023/03/23 08:34:53;;;;;;;11.15;0.90;;;;;;;8.49;66.05;99511.31;5034372;28;20053;-68
2023/03/23 08:37:21;;;;;;;12.95;1.30;;;;;;;8.58;65.15;99491.94;5038053;28;20053;-69
2023/03/23 08:39:47;;;;;;;10.75;0.80;;;;;;;8.67;65.53;99509.03;5031879;28;20056;-68
2023/03/23 08:42:15;;;;;;;6.97;1.10;;;;;;;8.75;65.28;99499.25;5030463;28;20045;-69
2023/03/23 08:44:44;;;;;;;8.65;0.95;;;;;;;8.82;64.48;99490.31;5027075;28;20114;-69
2023/03/23 08:47:11;;;;;;;14.93;1.15;;;;;;;8.90;64.19;99490.94;5031299;28;20049;-69
2023/03/23 08:49:38;;;;;;;18.63;1.70;;;;;;;8.96;64.45;99493.34;5033565;28;20061;-69
2023/03/23 08:52:05;;;;;;;10.40;1.25;;;;;;;9.03;63.38;99495.75;5036569;28;20497;-68
2023/03/23 08:54:32;;;;;;;7.78;0.93;;;;;;;9.09;63.50;99491.19;5039219;28;20065;-69
2023/03/23 08:57:01;;;;;;;15.82;1.35;;;;;;;9.15;63.73;99500.56;5037057;28;20065;-69
2023/03/23 08:59:28;;;;;;;14.60;1.33;;;;;;;9.21;63.42;99498.59;5041240;28;20041;-69
2023/03/23 09:01:56;;;;;;;14.20;1.40;;;;;;;9.26;63.26;99492.41;5038919;28;20067;-68
2023/03/23 09:04:23;;;;;;;8.25;0.60;;;;;;;9.28;63.24;99493.19;5034905;28;20722;-69
2023/03/23 09:06:50;;;;;;;9.30;1.17;;;;;;;9.33;62.04;99489.50;5033377;28;21127;-68
2023/03/23 09:09:17;;;;;;;11.85;2.38;;;;;;;9.37;62.25;99492.88;5045404;28;20055;-69
2023/03/23 09:11:44;;;;;;;13.80;1.05;;;;;;;9.39;61.45;99493.66;5035033;28;20051;-69
2023/03/23 09:14:12;;;;;;;10.90;0.77;;;;;;;9.42;61.63;99484.00;5040863;28;20069;-69
2023/03/23 09:16:39;;;;;;;11.55;0.90;;;;;;;9.46;60.96;99488.19;5035403;28;20486;-69
2023/03/23 09:19:09;;;;;;;8.77;0.90;;;;;;;9.50;60.72;99490.69;5039890;28;20049;-69
2023/03/23 09:21:37;;;;;;;9.07;0.70;;;;;;;9.51;61.43;99485.44;5033685;28;20041;-69
2023/03/23 09:24:04;;;;;;;11.52;0.75;;;;;;;9.53;61.03;99480.16;5035159;28;20064;-68
2023/03/23 09:26:31;;;;;;;9.50;0.50;;;;;;;9.59;61.46;99470.38;5034757;28;20063;-66
2023/03/23 09:28:59;;;;;;;9.05;0.77;;;;;;;9.69;61.16;99476.13;5040837;28;20055;-68
2023/03/23 09:31:27;;;;;;;11.15;1.75;;;;;;;9.99;60.65;99478.50;5040608;28;20419;-69
2023/03/23 09:33:55;;;;;;;13.23;1.20;;;;;;;10.18;59.75;99481.28;5033385;28;20140;-69
2023/03/23 09:36:25;;;;;;;10.43;0.70;;;;;;;10.10;59.71;99471.13;5037012;28;20077;-69
2023/03/23 09:38:53;;;;;;;8.45;0.60;;;;;;;10.02;60.01;99473.22;5038280;28;20491;-69
2023/03/23 09:41:57;;;;;;;8.70;0.88;;;;;;;10.10;60.20;99473.75;5030977;28;20045;-69
2023/03/23 09:44:32;;;;;;;10.68;1.05;;;;;;;10.17;59.69;99463.94;5037539;28;20071;-68
2023/03/23 09:47:07;;;;;;;11.23;0.70;;;;;;;10.23;59.54;99476.75;5034072;28;20784;-69
2023/03/23 09:49:38;;;;;;;10.13;0.93;;;;;;;10.25;60.03;99473.19;5034286;28;20140;-69
2023/03/23 09:52:14;;;;;;;10.35;1.20;;;;;;;10.26;58.75;99471.41;5040479;28;20421;-69
2023/03/23 09:54:43;;;;;;;8.63;1.25;;;;;;;10.21;59.08;99463.75;5039970;28;20060;-68
2023/03/23 09:57:17;;;;;;;14.35;1.33;;;;;;;10.20;59.39;99467.28;5032004;28;20057;-68
2023/03/23 09:59:52;;;;;;;8.65;0.95;;;;;;;10.20;59.64;99461.22;5036691;28;20049;-68
2023/03/23 10:02:22;;;;;;;7.90;0.80;;;;;;;10.21;59.52;99473.34;5040623;28;20045;-68
2023/03/23 10:04:51;;;;;;;11.95;0.73;;;;;;;10.22;59.53;99469.84;5039410;28;20297;-69
2023/03/23 10:07:21;;;;;;;8.80;1.25;;;;;;;10.21;59.08;99462.91;5030429;28;20705;-68
2023/03/23 10:09:56;;;;;;;14.02;1.20;;;;;;;10.23;58.99;99468.94;5039430;28;20425;-68
2023/03/23 10:12:33;;;;;;;5.88;0.90;;;;;;;10.26;59.22;99466.19;5033109;28;20061;-68
2023/03/23 10:15:10;;;;;;;8.70;0.82;;;;;;;10.28;58.86;99464.44;5036259;28;20047;-68
2023/03/23 10:17:43;;;;;;;8.13;0.98;;;;;;;10.30;58.96;99459.97;5037665;28;20052;-68
2023/03/23 10:20:22;;;;;;;19.35;1.05;;;;;;;10.32;59.32;99461.63;5034007;28;20044;-69
2023/03/23 10:22:54;;;;;;;8.57;0.63;;;;;;;10.37;58.88;99463.22;5034050;28;20506;-69
2023/03/23 10:25:25;;;;;;;14.45;1.70;;;;;;;10.37;59.23;99458.00;5038569;28;20060;-69
2023/03/23 10:28:01;;;;;;;9.75;1.02;;;;;;;10.41;59.38;99459.56;5037581;28;20045;-69
2023/03/23 10:30:32;;;;;;;10.20;2.15;;;;;;;10.44;59.11;99467.28;5033924;28;20042;-69
2023/03/23 10:33:04;;;;;;;4.97;0.85;;;;;;;10.46;58.89;99462.84;5042703;28;20119;-68
2023/03/23 10:35:43;;;;;;;7.95;0.95;;;;;;;10.47;59.30;99464.53;5032977;28;20045;-68
2023/03/23 10:38:16;;;;;;;17.13;1.83;;;;;;;10.49;58.94;99458.34;5032229;28;20501;-69
2023/03/23 10:40:50;;;;;;;10.55;1.27;;;;;;;10.50;58.82;99464.44;5038619;28;20041;-69
2023/03/23 10:43:18;;;;;;;12.70;0.65;;;;;;;10.51;58.74;99467.00;5038639;28;20045;-69
2023/03/23 10:45:50;;;;;;;7.95;0.68;;;;;;;10.52;58.53;99458.22;5027023;28;20047;-69
2023/03/23 10:48:21;;;;;;;8.40;0.60;;;;;;;10.52;58.44;99462.63;5040094;28;20041;-69
2023/03/23 10:50:53;;;;;;;7.65;1.00;;;;;;;10.52;58.33;99452.16;5034906;28;20048;-69
2023/03/23 10:53:24;;;;;;;7.28;0.60;;;;;;;10.53;58.59;99449.50;5031908;28;20108;-69
2023/03/23 10:55:52;;;;;;;9.25;0.75;;;;;;;10.54;58.14;99456.44;5034204;28;20052;-69
2023/03/23 10:58:25;;;;;;;9.32;0.70;;;;;;;10.55;57.46;99457.28;5035587;28;20072;-69
2023/03/23 11:00:52;;;;;;;6.53;1.52;;;;;;;10.53;57.05;99444.28;5038537;28;20095;-68
2023/03/23 11:03:28;;;;;;;17.52;0.95;;;;;;;10.55;57.50;99447.66;5035750;28;20045;-68
2023/03/23 11:05:58;;;;;;;8.65;0.75;;;;;;;10.54;57.60;99452.97;5034943;28;20383;-69
2023/03/23 11:08:30;;;;;;;13.07;0.70;;;;;;;10.56;57.49;99449.38;5039781;28;20048;-69
2023/03/23 11:11:09;;;;;;;5.15;1.02;;;;;;;10.56;57.18;99444.16;5035817;28;20500;-69
2023/03/23 11:13:43;;;;;;;8.90;1.00;;;;;;;10.57;57.37;99447.63;5036330;28;20060;-70
2023/03/23 11:16:11;;;;;;;11.45;0.65;;;;;;;10.56;57.83;99444.16;5034512;28;20128;-69
2023/03/23 11:18:40;;;;;;;11.10;1.25;;;;;;;10.56;57.94;99449.38;5036223;28;20053;-69
2023/03/23 11:21:09;;;;;;;11.93;1.08;;;;;;;10.57;57.81;99440.63;5035966;28;20484;-67
2023/03/23 11:23:41;;;;;;;8.73;0.65;;;;;;;10.50;57.52;99436.59;5036215;28;20053;-67
2023/03/23 11:26:15;;;;;;;12.23;1.15;;;;;;;10.57;57.11;99438.03;5032737;28;20102;-69
2023/03/23 11:28:47;;;;;;;12.82;0.75;;;;;;;10.60;56.94;99438.81;5040532;28;20103;-69
2023/03/23 11:31:15;;;;;;;11.93;0.93;;;;;;;10.60;57.20;99428.38;5041178;28;20119;-70
2023/03/23 11:33:51;;;;;;;8.73;0.50;;;;;;;10.59;56.88;99432.75;5032046;28;20247;-69
2023/03/23 11:36:19;;;;;;;10.52;1.00;;;;;;;10.61;57.54;99430.06;5033104;28;20505;-69
2023/03/23 11:38:47;;;;;;;5.70;0.60;;;;;;;10.63;57.20;99428.25;5030952;28;20497;-70
2023/03/23 11:41:19;;;;;;;12.00;1.45;;;;;;;10.62;56.67;99427.41;5035189;28;20481;-69
2023/03/23 11:43:48;;;;;;;12.63;0.75;;;;;;;10.64;56.69;99433.41;5030899;28;20049;-69
2023/03/23 11:46:23;;;;;;;12.32;2.55;;;;;;;10.65;55.86;99436.88;5037053;28;20049;-69